sensor_id;sensor_type;location;lat;lon;timestamp;P1;durP1;ratioP1;P2;durP2;ratioP2
47760;SDS011;33524;55.434;38.520;2023-01-15T00:02:15;5.35;;;3.75;;
47760;SDS011;33524;55.434;38.520;2023-01-15T00:04:48;8.93;;;4.40;;
47760;SDS011;33524;55.434;38.520;2023-01-15T00:07:37;14.80;;;7.15;;
47760;SDS011;33524;55.434;38.520;2023-01-15T00:10:06;8.73;;;5.55;;
47760;SDS011;33524;55.434;38.520;2023-01-15T00:12:34;14.65;;;8.88;;
47760;SDS011;33524;55.434;38.520;2023-01-15T00:15:05;7.65;;;3.90;;
47760;SDS011;33524;55.434;38.520;2023-01-15T00:17:38;5.87;;;3.87;;
47760;SDS011;33524;55.434;38.520;2023-01-15T00:20:06;7.30;;;4.62;;
47760;SDS011;33524;55.434;38.520;2023-01-15T00:22:44;10.63;;;4.95;;
47760;SDS011;33524;55.434;38.520;2023-01-15T00:25:23;19.92;;;8.48;;
47760;SDS011;33524;55.434;38.520;2023-01-15T00:28:11;12.75;;;5.45;;
47760;SDS011;33524;55.434;38.520;2023-01-15T00:30:45;13.80;;;7.68;;
47760;SDS011;33524;55.434;38.520;2023-01-15T00:33:16;16.08;;;6.82;;
47760;SDS011;33524;55.434;38.520;2023-01-15T00:35:47;11.10;;;4.95;;
47760;SDS011;33524;55.434;38.520;2023-01-15T00:38:15;11.30;;;5.37;;
47760;SDS011;33524;55.434;38.520;2023-01-15T00:40:43;6.53;;;4.85;;
47760;SDS011;33524;55.434;38.520;2023-01-15T00:43:14;14.90;;;3.45;;
47760;SDS011;33524;55.434;38.520;2023-01-15T00:45:43;7.62;;;5.22;;
47760;SDS011;33524;55.434;38.520;2023-01-15T00:48:11;11.38;;;3.78;;
47760;SDS011;33524;55.434;38.520;2023-01-15T00:50:42;9.90;;;5.32;;
47760;SDS011;33524;55.434;38.520;2023-01-15T00:53:10;7.90;;;5.35;;
47760;SDS011;33524;55.434;38.520;2023-01-15T00:55:38;18.42;;;7.62;;
47760;SDS011;33524;55.434;38.520;2023-01-15T00:58:06;8.00;;;5.45;;
47760;SDS011;33524;55.434;38.520;2023-01-15T01:00:34;22.23;;;7.05;;
47760;SDS011;33524;55.434;38.520;2023-01-15T01:03:02;13.80;;;8.25;;
47760;SDS011;33524;55.434;38.520;2023-01-15T01:05:31;13.62;;;6.60;;
47760;SDS011;33524;55.434;38.520;2023-01-15T01:07:59;12.70;;;6.72;;
47760;SDS011;33524;55.434;38.520;2023-01-15T01:10:27;10.50;;;3.67;;
47760;SDS011;33524;55.434;38.520;2023-01-15T01:12:55;8.43;;;5.30;;
47760;SDS011;33524;55.434;38.520;2023-01-15T01:15:23;14.52;;;5.97;;
47760;SDS011;33524;55.434;38.520;2023-01-15T01:17:52;11.38;;;5.22;;
47760;SDS011;33524;55.434;38.520;2023-01-15T01:20:20;16.55;;;6.15;;
47760;SDS011;33524;55.434;38.520;2023-01-15T01:22:48;5.87;;;4.85;;
47760;SDS011;33524;55.434;38.520;2023-01-15T01:25:16;9.10;;;5.15;;
47760;SDS011;33524;55.434;38.520;2023-01-15T01:27:45;19.42;;;7.30;;
47760;SDS011;33524;55.434;38.520;2023-01-15T01:30:13;13.57;;;6.95;;
47760;SDS011;33524;55.434;38.520;2023-01-15T01:32:43;16.05;;;6.60;;
47760;SDS011;33524;55.434;38.520;2023-01-15T01:35:15;8.88;;;4.70;;
47760;SDS011;33524;55.434;38.520;2023-01-15T01:37:47;14.25;;;7.35;;
47760;SDS011;33524;55.434;38.520;2023-01-15T01:40:16;11.45;;;5.57;;
47760;SDS011;33524;55.434;38.520;2023-01-15T01:42:48;11.23;;;5.45;;
47760;SDS011;33524;55.434;38.520;2023-01-15T01:45:21;18.42;;;9.20;;
47760;SDS011;33524;55.434;38.520;2023-01-15T01:48:00;14.57;;;5.95;;
47760;SDS011;33524;55.434;38.520;2023-01-15T01:50:32;13.65;;;7.72;;
47760;SDS011;33524;55.434;38.520;2023-01-15T01:53:03;13.70;;;6.12;;
47760;SDS011;33524;55.434;38.520;2023-01-15T01:55:40;15.82;;;7.90;;
47760;SDS011;33524;55.434;38.520;2023-01-15T01:58:09;8.80;;;4.00;;
47760;SDS011;33524;55.434;38.520;2023-01-15T02:00:39;14.70;;;8.75;;
47760;SDS011;33524;55.434;38.520;2023-01-15T02:05:41;15.93;;;8.15;;
47760;SDS011;33524;55.434;38.520;2023-01-15T02:08:14;12.68;;;6.12;;
47760;SDS011;33524;55.434;38.520;2023-01-15T02:10:42;12.85;;;5.37;;
47760;SDS011;33524;55.434;38.520;2023-01-15T02:15:54;11.20;;;4.60;;
47760;SDS011;33524;55.434;38.520;2023-01-15T02:18:37;9.50;;;5.45;;
47760;SDS011;33524;55.434;38.520;2023-01-15T02:21:37;20.02;;;6.43;;
47760;SDS011;33524;55.434;38.520;2023-01-15T02:29:47;9.23;;;4.35;;
47760;SDS011;33524;55.434;38.520;2023-01-15T02:35:10;12.98;;;5.80;;
47760;SDS011;33524;55.434;38.520;2023-01-15T02:37:45;13.38;;;5.47;;
47760;SDS011;33524;55.434;38.520;2023-01-15T02:40:19;14.07;;;5.25;;
47760;SDS011;33524;55.434;38.520;2023-01-15T02:42:53;15.57;;;7.78;;
47760;SDS011;33524;55.434;38.520;2023-01-15T02:47:57;9.80;;;4.18;;
47760;SDS011;33524;55.434;38.520;2023-01-15T02:50:38;16.98;;;8.05;;
47760;SDS011;33524;55.434;38.520;2023-01-15T02:53:11;27.08;;;9.68;;
47760;SDS011;33524;55.434;38.520;2023-01-15T02:55:45;15.95;;;6.93;;
47760;SDS011;33524;55.434;38.520;2023-01-15T02:58:19;20.45;;;9.68;;
47760;SDS011;33524;55.434;38.520;2023-01-15T03:00:52;14.38;;;7.82;;
47760;SDS011;33524;55.434;38.520;2023-01-15T03:03:25;19.15;;;7.05;;
47760;SDS011;33524;55.434;38.520;2023-01-15T03:07:18;12.90;;;6.18;;
47760;SDS011;33524;55.434;38.520;2023-01-15T03:09:29;21.52;;;9.00;;
47760;SDS011;33524;55.434;38.520;2023-01-15T03:17:55;24.37;;;6.53;;
47760;SDS011;33524;55.434;38.520;2023-01-15T03:20:26;19.08;;;10.10;;
47760;SDS011;33524;55.434;38.520;2023-01-15T03:22:57;21.25;;;7.15;;
47760;SDS011;33524;55.434;38.520;2023-01-15T03:25:35;22.70;;;9.95;;
47760;SDS011;33524;55.434;38.520;2023-01-15T03:28:09;20.85;;;9.32;;
47760;SDS011;33524;55.434;38.520;2023-01-15T03:30:41;15.13;;;8.23;;
47760;SDS011;33524;55.434;38.520;2023-01-15T03:33:10;13.60;;;5.72;;
47760;SDS011;33524;55.434;38.520;2023-01-15T03:38:27;15.52;;;8.00;;
47760;SDS011;33524;55.434;38.520;2023-01-15T03:47:16;11.73;;;6.43;;
47760;SDS011;33524;55.434;38.520;2023-01-15T03:52:29;15.57;;;9.10;;
47760;SDS011;33524;55.434;38.520;2023-01-15T03:58:01;15.00;;;8.23;;
47760;SDS011;33524;55.434;38.520;2023-01-15T04:01:08;16.48;;;7.78;;
47760;SDS011;33524;55.434;38.520;2023-01-15T04:03:32;12.85;;;7.57;;
47760;SDS011;33524;55.434;38.520;2023-01-15T04:06:02;18.75;;;7.45;;
47760;SDS011;33524;55.434;38.520;2023-01-15T04:08:34;16.90;;;7.45;;
47760;SDS011;33524;55.434;38.520;2023-01-15T04:11:09;20.27;;;10.43;;
47760;SDS011;33524;55.434;38.520;2023-01-15T04:13:37;16.45;;;8.35;;
47760;SDS011;33524;55.434;38.520;2023-01-15T04:16:07;12.48;;;6.22;;
47760;SDS011;33524;55.434;38.520;2023-01-15T04:18:35;15.65;;;7.72;;
47760;SDS011;33524;55.434;38.520;2023-01-15T04:21:03;7.57;;;5.32;;
47760;SDS011;33524;55.434;38.520;2023-01-15T04:23:32;18.50;;;9.02;;
47760;SDS011;33524;55.434;38.520;2023-01-15T04:26:00;22.55;;;8.45;;
47760;SDS011;33524;55.434;38.520;2023-01-15T04:28:28;17.90;;;8.85;;
47760;SDS011;33524;55.434;38.520;2023-01-15T04:30:59;17.87;;;9.70;;
47760;SDS011;33524;55.434;38.520;2023-01-15T04:33:27;21.83;;;9.07;;
47760;SDS011;33524;55.434;38.520;2023-01-15T04:35:58;13.20;;;8.15;;
47760;SDS011;33524;55.434;38.520;2023-01-15T04:38:30;25.08;;;9.57;;
47760;SDS011;33524;55.434;38.520;2023-01-15T04:41:01;25.30;;;10.38;;
47760;SDS011;33524;55.434;38.520;2023-01-15T04:43:51;23.23;;;9.60;;
47760;SDS011;33524;55.434;38.520;2023-01-15T04:49:05;22.60;;;10.00;;
47760;SDS011;33524;55.434;38.520;2023-01-15T04:51:38;19.42;;;9.60;;
47760;SDS011;33524;55.434;38.520;2023-01-15T04:54:07;13.70;;;8.38;;
47760;SDS011;33524;55.434;38.520;2023-01-15T04:56:37;15.02;;;8.98;;
47760;SDS011;33524;55.434;38.520;2023-01-15T04:59:07;17.23;;;8.85;;
47760;SDS011;33524;55.434;38.520;2023-01-15T05:01:36;19.60;;;9.55;;
47760;SDS011;33524;55.434;38.520;2023-01-15T05:04:07;19.02;;;6.28;;
47760;SDS011;33524;55.434;38.520;2023-01-15T05:06:39;18.08;;;9.38;;
47760;SDS011;33524;55.434;38.520;2023-01-15T05:09:07;10.18;;;5.43;;
47760;SDS011;33524;55.434;38.520;2023-01-15T05:11:36;18.00;;;9.00;;
47760;SDS011;33524;55.434;38.520;2023-01-15T05:14:05;17.02;;;8.52;;
47760;SDS011;33524;55.434;38.520;2023-01-15T05:16:37;14.57;;;8.07;;
47760;SDS011;33524;55.434;38.520;2023-01-15T05:19:05;13.25;;;6.47;;
47760;SDS011;33524;55.434;38.520;2023-01-15T05:21:40;19.20;;;8.82;;
47760;SDS011;33524;55.434;38.520;2023-01-15T05:24:13;14.87;;;8.98;;
47760;SDS011;33524;55.434;38.520;2023-01-15T05:26:43;17.58;;;8.10;;
47760;SDS011;33524;55.434;38.520;2023-01-15T05:29:12;19.50;;;6.95;;
47760;SDS011;33524;55.434;38.520;2023-01-15T05:31:40;16.92;;;7.53;;
47760;SDS011;33524;55.434;38.520;2023-01-15T05:34:12;15.38;;;8.07;;
47760;SDS011;33524;55.434;38.520;2023-01-15T05:36:40;12.40;;;5.87;;
47760;SDS011;33524;55.434;38.520;2023-01-15T05:39:08;19.65;;;8.82;;
47760;SDS011;33524;55.434;38.520;2023-01-15T05:41:37;21.05;;;6.93;;
47760;SDS011;33524;55.434;38.520;2023-01-15T05:44:25;15.60;;;6.53;;
47760;SDS011;33524;55.434;38.520;2023-01-15T05:46:56;17.70;;;7.10;;
47760;SDS011;33524;55.434;38.520;2023-01-15T05:49:26;15.13;;;5.25;;
47760;SDS011;33524;55.434;38.520;2023-01-15T05:51:58;10.40;;;5.55;;
47760;SDS011;33524;55.434;38.520;2023-01-15T05:54:28;14.80;;;7.22;;
47760;SDS011;33524;55.434;38.520;2023-01-15T05:56:59;18.95;;;9.75;;
47760;SDS011;33524;55.434;38.520;2023-01-15T05:59:28;18.25;;;9.02;;
47760;SDS011;33524;55.434;38.520;2023-01-15T06:02:09;11.95;;;7.00;;
47760;SDS011;33524;55.434;38.520;2023-01-15T06:04:38;6.95;;;3.60;;
47760;SDS011;33524;55.434;38.520;2023-01-15T06:07:05;11.77;;;5.62;;
47760;SDS011;33524;55.434;38.520;2023-01-15T06:09:33;10.18;;;5.43;;
47760;SDS011;33524;55.434;38.520;2023-01-15T06:12:05;18.85;;;8.65;;
47760;SDS011;33524;55.434;38.520;2023-01-15T06:14:32;19.92;;;8.98;;
47760;SDS011;33524;55.434;38.520;2023-01-15T06:17:01;9.85;;;6.15;;
47760;SDS011;33524;55.434;38.520;2023-01-15T06:19:29;24.52;;;11.40;;
47760;SDS011;33524;55.434;38.520;2023-01-15T06:21:57;13.20;;;8.32;;
47760;SDS011;33524;55.434;38.520;2023-01-15T06:24:25;12.32;;;7.37;;
47760;SDS011;33524;55.434;38.520;2023-01-15T06:26:53;6.53;;;4.43;;
47760;SDS011;33524;55.434;38.520;2023-01-15T06:29:24;25.23;;;9.65;;
47760;SDS011;33524;55.434;38.520;2023-01-15T06:31:53;10.93;;;6.22;;
47760;SDS011;33524;55.434;38.520;2023-01-15T06:34:22;16.55;;;8.52;;
47760;SDS011;33524;55.434;38.520;2023-01-15T06:36:49;11.80;;;5.60;;
47760;SDS011;33524;55.434;38.520;2023-01-15T06:39:18;12.02;;;7.70;;
47760;SDS011;33524;55.434;38.520;2023-01-15T06:41:45;10.85;;;5.82;;
47760;SDS011;33524;55.434;38.520;2023-01-15T06:44:32;14.77;;;7.57;;
47760;SDS011;33524;55.434;38.520;2023-01-15T06:47:22;13.27;;;5.22;;
47760;SDS011;33524;55.434;38.520;2023-01-15T06:49:55;10.27;;;4.60;;
47760;SDS011;33524;55.434;38.520;2023-01-15T06:52:25;7.22;;;4.95;;
47760;SDS011;33524;55.434;38.520;2023-01-15T06:54:55;10.35;;;5.12;;
47760;SDS011;33524;55.434;38.520;2023-01-15T06:57:23;7.50;;;3.95;;
47760;SDS011;33524;55.434;38.520;2023-01-15T06:59:50;11.30;;;6.35;;
47760;SDS011;33524;55.434;38.520;2023-01-15T07:02:19;7.72;;;4.07;;
47760;SDS011;33524;55.434;38.520;2023-01-15T07:04:48;13.73;;;7.37;;
47760;SDS011;33524;55.434;38.520;2023-01-15T07:07:17;6.80;;;3.35;;
47760;SDS011;33524;55.434;38.520;2023-01-15T07:09:46;9.07;;;3.90;;
47760;SDS011;33524;55.434;38.520;2023-01-15T07:12:14;17.10;;;7.90;;
47760;SDS011;33524;55.434;38.520;2023-01-15T07:14:43;9.68;;;5.30;;
47760;SDS011;33524;55.434;38.520;2023-01-15T07:17:11;9.25;;;5.12;;
47760;SDS011;33524;55.434;38.520;2023-01-15T07:19:40;9.68;;;2.80;;
47760;SDS011;33524;55.434;38.520;2023-01-15T07:22:08;12.00;;;6.32;;
47760;SDS011;33524;55.434;38.520;2023-01-15T07:24:37;13.90;;;5.53;;
47760;SDS011;33524;55.434;38.520;2023-01-15T07:27:05;13.40;;;6.45;;
47760;SDS011;33524;55.434;38.520;2023-01-15T07:29:33;7.90;;;4.97;;
47760;SDS011;33524;55.434;38.520;2023-01-15T07:32:02;6.22;;;3.55;;
47760;SDS011;33524;55.434;38.520;2023-01-15T07:34:31;5.70;;;3.90;;
47760;SDS011;33524;55.434;38.520;2023-01-15T07:36:59;9.38;;;4.65;;
47760;SDS011;33524;55.434;38.520;2023-01-15T07:39:28;12.25;;;5.55;;
47760;SDS011;33524;55.434;38.520;2023-01-15T07:41:58;11.07;;;6.07;;
47760;SDS011;33524;55.434;38.520;2023-01-15T07:44:50;4.72;;;2.17;;
47760;SDS011;33524;55.434;38.520;2023-01-15T07:47:39;9.18;;;3.47;;
47760;SDS011;33524;55.434;38.520;2023-01-15T07:50:26;3.20;;;2.22;;
47760;SDS011;33524;55.434;38.520;2023-01-15T07:52:56;7.95;;;4.22;;
47760;SDS011;33524;55.434;38.520;2023-01-15T07:55:25;14.45;;;3.40;;
47760;SDS011;33524;55.434;38.520;2023-01-15T07:57:57;7.97;;;4.00;;
47760;SDS011;33524;55.434;38.520;2023-01-15T08:00:26;10.48;;;4.93;;
47760;SDS011;33524;55.434;38.520;2023-01-15T08:02:55;6.47;;;4.37;;
47760;SDS011;33524;55.434;38.520;2023-01-15T08:05:25;7.90;;;3.83;;
47760;SDS011;33524;55.434;38.520;2023-01-15T08:07:56;5.03;;;3.70;;
47760;SDS011;33524;55.434;38.520;2023-01-15T08:10:25;9.90;;;5.67;;
47760;SDS011;33524;55.434;38.520;2023-01-15T08:12:54;13.23;;;4.82;;
47760;SDS011;33524;55.434;38.520;2023-01-15T08:15:42;17.33;;;5.40;;
47760;SDS011;33524;55.434;38.520;2023-01-15T08:18:13;6.70;;;3.62;;
47760;SDS011;33524;55.434;38.520;2023-01-15T08:20:42;3.47;;;2.78;;
47760;SDS011;33524;55.434;38.520;2023-01-15T08:23:17;8.57;;;3.40;;
47760;SDS011;33524;55.434;38.520;2023-01-15T08:25:47;5.60;;;4.30;;
47760;SDS011;33524;55.434;38.520;2023-01-15T08:28:21;6.40;;;3.92;;
47760;SDS011;33524;55.434;38.520;2023-01-15T08:30:50;9.52;;;4.22;;
47760;SDS011;33524;55.434;38.520;2023-01-15T08:33:19;6.45;;;3.83;;
47760;SDS011;33524;55.434;38.520;2023-01-15T08:35:51;5.75;;;4.25;;
47760;SDS011;33524;55.434;38.520;2023-01-15T08:38:22;8.30;;;4.82;;
47760;SDS011;33524;55.434;38.520;2023-01-15T08:40:55;7.05;;;4.30;;
47760;SDS011;33524;55.434;38.520;2023-01-15T08:43:30;10.07;;;4.45;;
47760;SDS011;33524;55.434;38.520;2023-01-15T08:46:06;5.70;;;3.80;;
47760;SDS011;33524;55.434;38.520;2023-01-15T08:48:36;6.32;;;4.93;;
47760;SDS011;33524;55.434;38.520;2023-01-15T08:51:08;19.70;;;6.93;;
47760;SDS011;33524;55.434;38.520;2023-01-15T08:53:39;5.85;;;3.67;;
47760;SDS011;33524;55.434;38.520;2023-01-15T08:56:16;11.32;;;4.10;;
47760;SDS011;33524;55.434;38.520;2023-01-15T08:58:48;4.87;;;3.35;;
47760;SDS011;33524;55.434;38.520;2023-01-15T09:01:25;2.50;;;2.12;;
47760;SDS011;33524;55.434;38.520;2023-01-15T09:03:58;6.60;;;3.08;;
47760;SDS011;33524;55.434;38.520;2023-01-15T09:06:30;10.13;;;5.05;;
47760;SDS011;33524;55.434;38.520;2023-01-15T09:09:00;15.40;;;6.15;;
47760;SDS011;33524;55.434;38.520;2023-01-15T09:11:29;6.55;;;3.87;;
47760;SDS011;33524;55.434;38.520;2023-01-15T09:13:57;5.37;;;3.62;;
47760;SDS011;33524;55.434;38.520;2023-01-15T09:16:30;10.05;;;2.60;;
47760;SDS011;33524;55.434;38.520;2023-01-15T09:19:00;11.02;;;7.68;;
47760;SDS011;33524;55.434;38.520;2023-01-15T09:21:31;5.07;;;2.25;;
47760;SDS011;33524;55.434;38.520;2023-01-15T09:24:03;5.80;;;2.97;;
47760;SDS011;33524;55.434;38.520;2023-01-15T09:26:33;9.52;;;3.53;;
47760;SDS011;33524;55.434;38.520;2023-01-15T09:29:06;9.40;;;5.07;;
47760;SDS011;33524;55.434;38.520;2023-01-15T09:31:36;9.57;;;4.78;;
47760;SDS011;33524;55.434;38.520;2023-01-15T09:34:06;7.82;;;3.80;;
47760;SDS011;33524;55.434;38.520;2023-01-15T09:36:50;8.25;;;4.62;;
47760;SDS011;33524;55.434;38.520;2023-01-15T09:39:18;10.40;;;4.62;;
47760;SDS011;33524;55.434;38.520;2023-01-15T09:41:53;8.52;;;4.82;;
47760;SDS011;33524;55.434;38.520;2023-01-15T09:47:38;6.12;;;3.75;;
47760;SDS011;33524;55.434;38.520;2023-01-15T09:55:23;11.12;;;4.28;;
47760;SDS011;33524;55.434;38.520;2023-01-15T09:57:57;2.72;;;1.90;;
47760;SDS011;33524;55.434;38.520;2023-01-15T10:00:37;7.95;;;4.62;;
47760;SDS011;33524;55.434;38.520;2023-01-15T10:05:45;8.63;;;2.50;;
47760;SDS011;33524;55.434;38.520;2023-01-15T10:08:34;9.20;;;2.62;;
47760;SDS011;33524;55.434;38.520;2023-01-15T10:13:45;7.22;;;2.62;;
47760;SDS011;33524;55.434;38.520;2023-01-15T10:16:25;2.13;;;2.00;;
47760;SDS011;33524;55.434;38.520;2023-01-15T10:21:44;11.00;;;4.70;;
47760;SDS011;33524;55.434;38.520;2023-01-15T10:24:18;9.05;;;4.35;;
47760;SDS011;33524;55.434;38.520;2023-01-15T10:32:21;9.13;;;3.95;;
47760;SDS011;33524;55.434;38.520;2023-01-15T10:46:29;3.90;;;2.50;;
47760;SDS011;33524;55.434;38.520;2023-01-15T10:49:10;5.62;;;3.75;;
47760;SDS011;33524;55.434;38.520;2023-01-15T10:51:43;8.35;;;3.33;;
47760;SDS011;33524;55.434;38.520;2023-01-15T10:54:44;6.90;;;4.90;;
47760;SDS011;33524;55.434;38.520;2023-01-15T10:57:40;6.10;;;3.22;;
47760;SDS011;33524;55.434;38.520;2023-01-15T11:00:36;5.80;;;3.47;;
47760;SDS011;33524;55.434;38.520;2023-01-15T11:03:11;9.23;;;3.80;;
47760;SDS011;33524;55.434;38.520;2023-01-15T11:05:47;12.27;;;4.62;;
47760;SDS011;33524;55.434;38.520;2023-01-15T11:08:22;7.15;;;4.15;;
47760;SDS011;33524;55.434;38.520;2023-01-15T11:14:39;4.62;;;2.72;;
47760;SDS011;33524;55.434;38.520;2023-01-15T11:18:06;1.90;;;1.48;;
47760;SDS011;33524;55.434;38.520;2023-01-15T11:20:50;6.28;;;3.67;;
47760;SDS011;33524;55.434;38.520;2023-01-15T11:23:23;4.95;;;3.42;;
47760;SDS011;33524;55.434;38.520;2023-01-15T11:25:56;4.57;;;2.47;;
47760;SDS011;33524;55.434;38.520;2023-01-15T11:31:02;4.30;;;2.80;;
47760;SDS011;33524;55.434;38.520;2023-01-15T11:33:33;5.90;;;3.08;;
47760;SDS011;33524;55.434;38.520;2023-01-15T11:36:18;4.57;;;2.53;;
47760;SDS011;33524;55.434;38.520;2023-01-15T11:38:53;10.48;;;2.90;;
47760;SDS011;33524;55.434;38.520;2023-01-15T11:41:31;6.18;;;2.37;;
47760;SDS011;33524;55.434;38.520;2023-01-15T11:44:21;5.55;;;2.50;;
47760;SDS011;33524;55.434;38.520;2023-01-15T11:47:12;5.03;;;2.83;;
47760;SDS011;33524;55.434;38.520;2023-01-15T11:53:03;3.50;;;2.20;;
47760;SDS011;33524;55.434;38.520;2023-01-15T11:58:20;2.12;;;1.92;;
47760;SDS011;33524;55.434;38.520;2023-01-15T12:00:51;8.20;;;3.42;;
47760;SDS011;33524;55.434;38.520;2023-01-15T12:03:28;8.13;;;2.97;;
47760;SDS011;33524;55.434;38.520;2023-01-15T12:06:04;12.30;;;5.78;;
47760;SDS011;33524;55.434;38.520;2023-01-15T12:16:53;4.70;;;2.87;;
47760;SDS011;33524;55.434;38.520;2023-01-15T12:19:52;5.32;;;2.78;;
47760;SDS011;33524;55.434;38.520;2023-01-15T12:39:29;5.80;;;3.10;;
47760;SDS011;33524;55.434;38.520;2023-01-15T12:42:04;5.55;;;2.80;;
47760;SDS011;33524;55.434;38.520;2023-01-15T12:45:02;6.20;;;3.12;;
47760;SDS011;33524;55.434;38.520;2023-01-15T12:56:19;2.95;;;1.87;;
47760;SDS011;33524;55.434;38.520;2023-01-15T12:59:21;4.03;;;1.77;;
47760;SDS011;33524;55.434;38.520;2023-01-15T13:05:29;6.07;;;3.58;;
47760;SDS011;33524;55.434;38.520;2023-01-15T13:08:11;4.12;;;2.55;;
47760;SDS011;33524;55.434;38.520;2023-01-15T13:10:58;4.50;;;1.40;;
47760;SDS011;33524;55.434;38.520;2023-01-15T13:13:35;10.57;;;2.95;;
47760;SDS011;33524;55.434;38.520;2023-01-15T13:16:23;6.57;;;3.58;;
47760;SDS011;33524;55.434;38.520;2023-01-15T13:21:55;6.80;;;3.53;;
47760;SDS011;33524;55.434;38.520;2023-01-15T13:33:26;6.15;;;2.62;;
47760;SDS011;33524;55.434;38.520;2023-01-15T13:36:12;5.57;;;2.70;;
47760;SDS011;33524;55.434;38.520;2023-01-15T13:38:50;4.28;;;2.58;;
47760;SDS011;33524;55.434;38.520;2023-01-15T13:41:24;8.15;;;2.15;;
47760;SDS011;33524;55.434;38.520;2023-01-15T13:44:16;2.47;;;2.08;;
47760;SDS011;33524;55.434;38.520;2023-01-15T13:47:49;3.28;;;1.83;;
47760;SDS011;33524;55.434;38.520;2023-01-15T13:50:12;6.97;;;2.20;;
47760;SDS011;33524;55.434;38.520;2023-01-15T13:52:45;6.87;;;2.92;;
47760;SDS011;33524;55.434;38.520;2023-01-15T13:55:25;4.60;;;3.00;;
47760;SDS011;33524;55.434;38.520;2023-01-15T13:57:57;20.85;;;4.47;;
47760;SDS011;33524;55.434;38.520;2023-01-15T14:05:34;7.72;;;3.50;;
47760;SDS011;33524;55.434;38.520;2023-01-15T14:08:14;7.90;;;3.42;;
47760;SDS011;33524;55.434;38.520;2023-01-15T14:10:47;6.43;;;2.87;;
47760;SDS011;33524;55.434;38.520;2023-01-15T14:13:36;7.07;;;2.65;;
47760;SDS011;33524;55.434;38.520;2023-01-15T14:30:53;9.07;;;5.35;;
47760;SDS011;33524;55.434;38.520;2023-01-15T14:36:45;13.33;;;6.67;;
47760;SDS011;33524;55.434;38.520;2023-01-15T14:39:30;11.32;;;5.25;;
47760;SDS011;33524;55.434;38.520;2023-01-15T14:44:56;21.45;;;6.82;;
47760;SDS011;33524;55.434;38.520;2023-01-15T14:47:35;10.25;;;5.37;;
47760;SDS011;33524;55.434;38.520;2023-01-15T14:55:52;10.57;;;5.75;;
47760;SDS011;33524;55.434;38.520;2023-01-15T15:01:17;8.93;;;3.25;;
47760;SDS011;33524;55.434;38.520;2023-01-15T15:07:13;12.13;;;4.70;;
47760;SDS011;33524;55.434;38.520;2023-01-15T15:09:49;16.02;;;8.05;;
47760;SDS011;33524;55.434;38.520;2023-01-15T15:18:22;12.00;;;6.03;;
47760;SDS011;33524;55.434;38.520;2023-01-15T15:26:17;9.07;;;4.22;;
47760;SDS011;33524;55.434;38.520;2023-01-15T15:29:00;13.73;;;7.32;;
47760;SDS011;33524;55.434;38.520;2023-01-15T15:34:36;12.65;;;6.03;;
47760;SDS011;33524;55.434;38.520;2023-01-15T15:37:20;13.30;;;4.72;;
47760;SDS011;33524;55.434;38.520;2023-01-15T15:42:40;15.32;;;6.78;;
47760;SDS011;33524;55.434;38.520;2023-01-15T15:45:34;14.23;;;6.03;;
47760;SDS011;33524;55.434;38.520;2023-01-15T15:48:31;15.23;;;6.80;;
47760;SDS011;33524;55.434;38.520;2023-01-15T15:51:32;21.90;;;8.70;;
47760;SDS011;33524;55.434;38.520;2023-01-15T15:54:10;13.02;;;6.05;;
47760;SDS011;33524;55.434;38.520;2023-01-15T15:56:44;15.65;;;8.07;;
47760;SDS011;33524;55.434;38.520;2023-01-15T15:59:48;15.30;;;6.72;;
47760;SDS011;33524;55.434;38.520;2023-01-15T16:02:24;23.98;;;8.32;;
47760;SDS011;33524;55.434;38.520;2023-01-15T16:05:20;14.90;;;7.18;;
47760;SDS011;33524;55.434;38.520;2023-01-15T16:07:54;8.50;;;4.80;;
47760;SDS011;33524;55.434;38.520;2023-01-15T16:10:34;12.95;;;6.45;;
47760;SDS011;33524;55.434;38.520;2023-01-15T16:13:09;7.47;;;5.10;;
47760;SDS011;33524;55.434;38.520;2023-01-15T16:15:49;12.85;;;7.40;;
47760;SDS011;33524;55.434;38.520;2023-01-15T16:18:34;15.85;;;8.05;;
47760;SDS011;33524;55.434;38.520;2023-01-15T16:21:08;15.30;;;8.27;;
47760;SDS011;33524;55.434;38.520;2023-01-15T16:23:42;17.70;;;8.68;;
47760;SDS011;33524;55.434;38.520;2023-01-15T16:26:36;14.57;;;6.50;;
47760;SDS011;33524;55.434;38.520;2023-01-15T16:29:23;16.27;;;7.50;;
47760;SDS011;33524;55.434;38.520;2023-01-15T16:31:59;17.02;;;6.85;;
47760;SDS011;33524;55.434;38.520;2023-01-15T16:34:33;19.55;;;9.30;;
47760;SDS011;33524;55.434;38.520;2023-01-15T16:37:02;13.82;;;6.60;;
47760;SDS011;33524;55.434;38.520;2023-01-15T16:39:49;9.38;;;4.75;;
47760;SDS011;33524;55.434;38.520;2023-01-15T16:42:23;17.67;;;8.45;;
47760;SDS011;33524;55.434;38.520;2023-01-15T16:45:00;10.20;;;4.10;;
47760;SDS011;33524;55.434;38.520;2023-01-15T16:47:35;20.77;;;7.80;;
47760;SDS011;33524;55.434;38.520;2023-01-15T16:52:56;16.12;;;8.82;;
47760;SDS011;33524;55.434;38.520;2023-01-15T16:55:35;24.50;;;6.95;;
47760;SDS011;33524;55.434;38.520;2023-01-15T17:00:39;12.48;;;7.50;;
47760;SDS011;33524;55.434;38.520;2023-01-15T17:05:52;16.08;;;7.93;;
47760;SDS011;33524;55.434;38.520;2023-01-15T17:08:32;13.98;;;8.35;;
47760;SDS011;33524;55.434;38.520;2023-01-15T17:11:16;19.62;;;8.82;;
47760;SDS011;33524;55.434;38.520;2023-01-15T17:14:10;17.55;;;7.57;;
47760;SDS011;33524;55.434;38.520;2023-01-15T17:19:54;10.85;;;6.28;;
47760;SDS011;33524;55.434;38.520;2023-01-15T17:22:28;17.20;;;6.95;;
47760;SDS011;33524;55.434;38.520;2023-01-15T17:25:19;8.90;;;4.20;;
47760;SDS011;33524;55.434;38.520;2023-01-15T17:27:49;14.82;;;6.50;;
47760;SDS011;33524;55.434;38.520;2023-01-15T17:30:19;13.15;;;7.55;;
47760;SDS011;33524;55.434;38.520;2023-01-15T17:32:52;5.05;;;3.58;;
47760;SDS011;33524;55.434;38.520;2023-01-15T17:37:58;15.48;;;8.30;;
47760;SDS011;33524;55.434;38.520;2023-01-15T17:40:29;9.43;;;5.53;;
47760;SDS011;33524;55.434;38.520;2023-01-15T17:42:59;10.60;;;5.12;;
47760;SDS011;33524;55.434;38.520;2023-01-15T17:45:32;10.27;;;5.18;;
47760;SDS011;33524;55.434;38.520;2023-01-15T17:48:03;12.70;;;7.43;;
47760;SDS011;33524;55.434;38.520;2023-01-15T17:50:39;8.05;;;5.18;;
47760;SDS011;33524;55.434;38.520;2023-01-15T17:53:11;12.30;;;7.15;;
47760;SDS011;33524;55.434;38.520;2023-01-15T17:55:45;16.02;;;8.18;;
47760;SDS011;33524;55.434;38.520;2023-01-15T17:58:37;14.73;;;6.87;;
47760;SDS011;33524;55.434;38.520;2023-01-15T18:01:26;9.52;;;5.87;;
47760;SDS011;33524;55.434;38.520;2023-01-15T18:04:21;9.77;;;4.37;;
47760;SDS011;33524;55.434;38.520;2023-01-15T18:07:14;13.85;;;7.18;;
47760;SDS011;33524;55.434;38.520;2023-01-15T18:09:50;10.27;;;4.43;;
47760;SDS011;33524;55.434;38.520;2023-01-15T18:12:22;10.00;;;3.85;;
47760;SDS011;33524;55.434;38.520;2023-01-15T18:14:52;7.72;;;4.07;;
47760;SDS011;33524;55.434;38.520;2023-01-15T18:17:27;8.15;;;4.40;;
47760;SDS011;33524;55.434;38.520;2023-01-15T18:20:02;15.82;;;8.43;;
47760;SDS011;33524;55.434;38.520;2023-01-15T18:22:34;9.98;;;6.65;;
47760;SDS011;33524;55.434;38.520;2023-01-15T18:25:06;12.90;;;6.82;;
47760;SDS011;33524;55.434;38.520;2023-01-15T18:27:41;15.68;;;7.95;;
47760;SDS011;33524;55.434;38.520;2023-01-15T18:30:15;15.18;;;7.72;;
47760;SDS011;33524;55.434;38.520;2023-01-15T18:35:18;14.63;;;6.70;;
47760;SDS011;33524;55.434;38.520;2023-01-15T18:38:04;15.60;;;6.72;;